Time;durP1;ratioP1;P1;durP2;ratioP2;P2;SDS_P1;SDS_P2;PMS_P1;PMS_P2;Temp;Humidity;BMP_temperature;BMP_pressure;BME280_temperature;BME280_humidity;BME280_pressure;Samples;Min_cycle;Max_cycle;Signal;HPM_P1;HPM_P2
2022/02/11 00:00:53;;;;;;;49.75;24.35;;;;;;;;;;6307436;28;20074;-77
2022/02/11 00:07:03;;;;;;;16.85;9.00;;;;;;;;;;6310067;28;20090;-77
2022/02/11 00:10:07;;;;;;;16.63;8.93;;;;;;;;;;6308440;28;20410;-79
2022/02/11 00:13:14;;;;;;;16.55;9.07;;;;;;;;;;6307323;28;20117;-79
2022/02/11 00:16:17;;;;;;;18.80;10.18;;;;;;;;;;6307799;28;20422;-77
2022/02/11 00:19:22;;;;;;;;;;;;;;;;;;6305729;28;20056;-78
2022/02/11 00:22:25;;;;;;;15.90;8.82;;;;;;;;;;6324232;28;20293;-77
2022/02/11 00:25:28;;;;;;;19.15;9.88;;;;;;;;;;6317213;28;20081;-77
2022/02/11 00:32:05;;;;;;;16.77;10.00;;;;;;;;;;6341654;28;19927;-77
2022/02/11 00:35:19;;;;;;;16.50;9.05;;;;;;;;;;6316718;28;20036;-78
2022/02/11 00:38:29;;;;;;;18.83;10.57;;;;;;;;;;6316586;28;20395;-78
2022/02/11 00:42:37;;;;;;;15.32;9.00;;;;;;;;;;6331740;28;20149;-78
2022/02/11 01:02:17;;;;;;;18.27;9.70;;;;;;;;;;6337491;28;20036;-75
2022/02/11 01:05:22;;;;;;;21.33;10.00;;;;;;;;;;6315041;28;20070;-75
2022/02/11 01:08:25;;;;;;;18.17;9.50;;;;;;;;;;6314130;28;20450;-76
2022/02/11 01:11:31;;;;;;;16.10;9.65;;;;;;;;;;6311898;28;20066;-75
2022/02/11 01:14:36;;;;;;;18.83;9.43;;;;;;;;;;6314167;28;20528;-76
2022/02/11 01:17:43;;;;;;;15.48;9.48;;;;;;;;;;6313904;28;20055;-76
2022/02/11 01:20:51;;;;;;;18.42;9.63;;;;;;;;;;6312216;28;20055;-77
2022/02/11 01:24:02;;;;;;;17.80;9.15;;;;;;;;;;6316039;28;20051;-76
2022/02/11 01:27:20;;;;;;;19.58;9.80;;;;;;;;;;6316003;28;20040;-76
2022/02/11 01:30:48;;;;;;;17.23;9.55;;;;;;;;;;6314671;28;20056;-76
2022/02/11 01:54:48;;;;;;;16.08;8.95;;;;;;;;;;6357835;28;20055;-76
2022/02/11 01:58:27;;;;;;;14.88;8.25;;;;;;;;;;6361750;28;20273;-78
2022/02/11 02:12:00;;;;;;;16.67;8.90;;;;;;;;;;6350672;28;20059;-77
2022/02/11 02:15:29;;;;;;;17.63;9.35;;;;;;;;;;6362423;28;20386;-77
2022/02/11 02:19:24;;;;;;;16.73;8.90;;;;;;;;;;6363212;28;20058;-77
2022/02/11 02:22:50;;;;;;;19.38;8.88;;;;;;;;;;6363952;28;20044;-77
2022/02/11 02:26:05;;;;;;;14.32;7.50;;;;;;;;;;6364130;28;20409;-78
2022/02/11 02:39:22;;;;;;;17.80;9.02;;;;;;;;;;6363611;28;20035;-76
2022/02/11 02:59:21;;;;;;;16.10;8.38;;;;;;;;;;6344560;28;20067;-77
2022/02/11 03:16:33;;;;;;;14.73;8.50;;;;;;;;;;6345573;28;20500;-75
2022/02/11 03:57:26;;;;;;;15.43;8.40;;;;;;;;;;6320056;28;20067;-75
2022/02/11 04:21:09;;;;;;;16.77;8.65;;;;;;;;;;6344251;28;20402;-75
2022/02/11 05:01:05;;;;;;;17.48;8.98;;;;;;;;;;6345189;28;20047;-75
2022/02/11 05:04:09;;;;;;;16.10;8.27;;;;;;;;;;6341862;28;20396;-77
2022/02/11 05:07:14;;;;;;;17.80;8.30;;;;;;;;;;6343616;28;20066;-76
2022/02/11 05:10:19;;;;;;;16.83;8.32;;;;;;;;;;6343652;28;20165;-75
2022/02/11 05:13:24;;;;;;;16.70;8.65;;;;;;;;;;6342375;28;20565;-76
2022/02/11 05:16:27;;;;;;;16.17;8.57;;;;;;;;;;6343961;28;20443;-77
2022/02/11 05:19:31;;;;;;;20.83;9.00;;;;;;;;;;6343108;28;20374;-76
2022/02/11 05:22:37;;;;;;;19.23;9.32;;;;;;;;;;6343379;28;20043;-80
2022/02/11 05:25:43;;;;;;;21.30;11.05;;;;;;;;;;6342325;28;20054;-79
2022/02/11 05:28:47;;;;;;;18.92;9.75;;;;;;;;;;6345005;28;20429;-78
2022/02/11 05:31:52;;;;;;;20.80;10.10;;;;;;;;;;6343424;28;20051;-78
2022/02/11 05:34:56;;;;;;;18.67;10.27;;;;;;;;;;6343383;28;20047;-79
2022/02/11 05:37:59;;;;;;;17.58;9.55;;;;;;;;;;6342850;28;20039;-78
2022/02/11 05:41:03;;;;;;;14.63;8.65;;;;;;;;;;6343274;28;20051;-76
2022/02/11 05:44:08;;;;;;;19.52;9.48;;;;;;;;;;6344170;28;20054;-75
2022/02/11 05:47:11;;;;;;;20.10;9.68;;;;;;;;;;6341241;28;20787;-77
2022/02/11 05:50:14;;;;;;;15.48;8.82;;;;;;;;;;6342811;28;20509;-76
2022/02/11 05:53:30;;;;;;;;;;;;;;;;;;6344686;28;20070;-76
2022/02/11 05:56:34;;;;;;;17.42;8.55;;;;;;;;;;6342469;28;19926;-76
2022/02/11 05:59:38;;;;;;;18.52;9.35;;;;;;;;;;6343705;28;20040;-76
2022/02/11 06:02:41;;;;;;;18.30;8.95;;;;;;;;;;6342307;28;20048;-76
2022/02/11 06:05:47;;;;;;;14.07;8.48;;;;;;;;;;6340338;28;20059;-77
2022/02/11 06:08:51;;;;;;;20.48;8.65;;;;;;;;;;6320855;28;20048;-76
2022/02/11 06:11:55;;;;;;;18.60;9.57;;;;;;;;;;6317279;28;20044;-76
2022/02/11 06:15:00;;;;;;;14.93;8.80;;;;;;;;;;6316508;28;20414;-76
2022/02/11 06:18:03;;;;;;;13.63;8.38;;;;;;;;;;6320105;28;20036;-76
2022/02/11 06:21:06;;;;;;;15.63;8.55;;;;;;;;;;6318410;28;20048;-75
2022/02/11 06:24:09;;;;;;;21.52;8.85;;;;;;;;;;6318556;28;20036;-78
2022/02/11 06:27:12;;;;;;;16.65;8.07;;;;;;;;;;6317421;28;20047;-80
2022/02/11 06:30:16;;;;;;;16.92;9.05;;;;;;;;;;6316730;28;20090;-80
2022/02/11 06:33:20;;;;;;;18.05;9.60;;;;;;;;;;6320594;28;20051;-78
2022/02/11 06:36:22;;;;;;;14.35;8.30;;;;;;;;;;6322253;28;20181;-80
2022/02/11 06:39:26;;;;;;;16.30;8.65;;;;;;;;;;6321520;28;20048;-78
2022/02/11 06:42:29;;;;;;;14.52;8.90;;;;;;;;;;6321562;28;20486;-77
2022/02/11 06:45:37;;;;;;;17.58;8.93;;;;;;;;;;6321165;28;20059;-77
2022/02/11 06:48:40;;;;;;;19.35;10.48;;;;;;;;;;6318573;28;20047;-75
2022/02/11 06:51:43;;;;;;;21.40;9.00;;;;;;;;;;6319649;28;20040;-76
2022/02/11 06:54:47;;;;;;;15.30;8.60;;;;;;;;;;6320556;28;20063;-76
2022/02/11 06:57:50;;;;;;;19.67;8.77;;;;;;;;;;6300947;28;20522;-75
2022/02/11 07:00:55;;;;;;;15.50;8.57;;;;;;;;;;6305200;28;20048;-79
2022/02/11 07:03:59;;;;;;;34.70;18.88;;;;;;;;;;6312503;28;20044;-78
2022/02/11 07:07:03;;;;;;;18.88;9.88;;;;;;;;;;6313887;28;20051;-78
2022/02/11 07:10:06;;;;;;;20.38;8.98;;;;;;;;;;6310670;28;20454;-77
2022/02/11 07:13:14;;;;;;;15.23;8.13;;;;;;;;;;6310376;28;20040;-75
2022/02/11 07:16:19;;;;;;;35.30;12.65;;;;;;;;;;6309786;28;20044;-76
2022/02/11 07:19:22;;;;;;;16.13;8.50;;;;;;;;;;6304034;28;20119;-76
2022/02/11 07:22:30;;;;;;;16.25;7.60;;;;;;;;;;6314432;28;20043;-76
2022/02/11 07:25:36;;;;;;;18.38;8.70;;;;;;;;;;6318302;28;20089;-76
2022/02/11 07:28:39;;;;;;;17.60;8.90;;;;;;;;;;6335571;28;20054;-75
2022/02/11 07:31:44;;;;;;;15.10;8.05;;;;;;;;;;6333900;28;20814;-76
2022/02/11 07:34:48;;;;;;;17.85;8.45;;;;;;;;;;6335121;28;20891;-75
2022/02/11 07:37:51;;;;;;;19.50;10.02;;;;;;;;;;6338322;28;20043;-74
2022/02/11 07:40:57;;;;;;;19.88;10.77;;;;;;;;;;6334283;28;20054;-76
2022/02/11 07:44:00;;;;;;;19.77;11.32;;;;;;;;;;6335750;28;20044;-77
2022/02/11 07:47:06;;;;;;;19.50;10.65;;;;;;;;;;6334054;28;20083;-77
2022/02/11 07:50:09;;;;;;;26.23;14.60;;;;;;;;;;6332509;28;20043;-77
2022/02/11 07:53:16;;;;;;;23.23;14.20;;;;;;;;;;6332939;28;20501;-77
2022/02/11 07:56:19;;;;;;;26.48;14.23;;;;;;;;;;6333872;28;20067;-78
2022/02/11 07:59:22;;;;;;;28.17;15.65;;;;;;;;;;6334886;28;20044;-78
2022/02/11 08:02:29;;;;;;;28.13;16.95;;;;;;;;;;6331842;28;20684;-77
2022/02/11 08:05:32;;;;;;;33.67;16.83;;;;;;;;;;6335453;28;20054;-78
2022/02/11 08:08:36;;;;;;;28.73;16.70;;;;;;;;;;6335845;28;20122;-78
2022/02/11 08:11:39;;;;;;;27.35;17.13;;;;;;;;;;6336289;28;20047;-79
2022/02/11 08:14:43;;;;;;;30.10;15.20;;;;;;;;;;6334327;28;20058;-78
2022/02/11 08:17:50;;;;;;;30.15;16.65;;;;;;;;;;6333007;28;20052;-78
2022/02/11 08:20:54;;;;;;;28.63;14.80;;;;;;;;;;6334316;28;20039;-79
2022/02/11 08:24:01;;;;;;;31.83;15.52;;;;;;;;;;6331751;28;20047;-78
2022/02/11 08:27:04;;;;;;;27.23;16.00;;;;;;;;;;6312468;28;20097;-76
2022/02/11 08:30:08;;;;;;;24.58;14.32;;;;;;;;;;6294445;28;20447;-79
2022/02/11 08:33:13;;;;;;;19.55;10.27;;;;;;;;;;6331031;28;20173;-79
2022/02/11 08:36:17;;;;;;;24.65;11.38;;;;;;;;;;6333016;28;20135;-77
2022/02/11 08:39:20;;;;;;;19.73;10.30;;;;;;;;;;6313658;28;20040;-79
2022/02/11 08:42:26;;;;;;;20.65;8.95;;;;;;;;;;6310156;28;20073;-77
2022/02/11 08:45:29;;;;;;;29.17;14.57;;;;;;;;;;6307408;28;20060;-78
2022/02/11 08:48:34;;;;;;;32.83;15.88;;;;;;;;;;6306778;28;20826;-77
2022/02/11 08:51:37;;;;;;;30.83;16.58;;;;;;;;;;6306516;28;20470;-77
2022/02/11 08:54:40;;;;;;;32.13;15.85;;;;;;;;;;6304334;28;20048;-77
2022/02/11 08:57:47;;;;;;;32.53;16.38;;;;;;;;;;6307360;28;20624;-77
2022/02/11 09:00:50;;;;;;;31.27;16.10;;;;;;;;;;6307402;28;20136;-78
2022/02/11 09:04:01;;;;;;;32.30;16.67;;;;;;;;;;6306454;28;20832;-78
2022/02/11 09:07:04;;;;;;;32.45;18.17;;;;;;;;;;6305249;28;20048;-77
2022/02/11 09:10:08;;;;;;;34.05;18.63;;;;;;;;;;6298517;28;20051;-76
2022/02/11 09:13:12;;;;;;;33.72;20.48;;;;;;;;;;6310273;28;20051;-77
2022/02/11 09:16:15;;;;;;;39.28;20.52;;;;;;;;;;6306419;28;20040;-76
2022/02/11 09:19:22;;;;;;;41.65;22.45;;;;;;;;;;6308021;28;20623;-77
2022/02/11 09:22:25;;;;;;;41.58;22.58;;;;;;;;;;6308632;28;20039;-77
2022/02/11 09:25:29;;;;;;;39.00;22.23;;;;;;;;;;6304893;28;20050;-77
2022/02/11 09:28:33;;;;;;;33.63;19.83;;;;;;;;;;6305308;28;20086;-82
2022/02/11 09:31:36;;;;;;;38.67;20.70;;;;;;;;;;6309801;28;20513;-83
2022/02/11 09:34:41;;;;;;;38.35;19.05;;;;;;;;;;6308795;28;20043;-81
2022/02/11 09:37:47;;;;;;;33.22;19.95;;;;;;;;;;6306546;28;20097;-80
2022/02/11 09:40:51;;;;;;;20.73;8.73;;;;;;;;;;6310068;28;20502;-84
2022/02/11 09:43:56;;;;;;;20.17;8.77;;;;;;;;;;6294389;28;20056;-82
2022/02/11 09:46:59;;;;;;;14.32;6.80;;;;;;;;;;6293405;28;20066;-81
2022/02/11 09:50:04;;;;;;;17.77;7.43;;;;;;;;;;6308907;28;20044;-82
2022/02/11 09:53:07;;;;;;;20.65;8.13;;;;;;;;;;6308052;28;20495;-79
2022/02/11 09:56:11;;;;;;;19.48;7.72;;;;;;;;;;6304797;28;20046;-80
2022/02/11 09:59:34;;;;;;;18.02;7.15;;;;;;;;;;6299472;28;20048;-80
2022/02/11 10:02:48;;;;;;;14.27;6.72;;;;;;;;;;6307376;28;20530;-79
2022/02/11 10:05:56;;;;;;;15.90;6.55;;;;;;;;;;6308139;28;20308;-80
2022/02/11 10:09:00;;;;;;;19.70;6.60;;;;;;;;;;6310145;28;20051;-80
2022/02/11 10:12:05;;;;;;;20.67;10.02;;;;;;;;;;6311199;28;20124;-75
2022/02/11 10:15:18;;;;;;;12.75;5.85;;;;;;;;;;6310941;28;20044;-75
2022/02/11 10:18:24;;;;;;;29.95;15.20;;;;;;;;;;6311927;28;20048;-76
2022/02/11 10:21:34;;;;;;;39.72;22.58;;;;;;;;;;6310519;28;20072;-78
2022/02/11 10:24:37;;;;;;;44.60;23.63;;;;;;;;;;6311443;28;20460;-76
2022/02/11 10:27:43;;;;;;;45.20;25.40;;;;;;;;;;6294162;28;20113;-76
2022/02/11 10:31:20;;;;;;;47.83;26.88;;;;;;;;;;6308916;28;20070;-77
2022/02/11 10:34:23;;;;;;;44.03;25.35;;;;;;;;;;6307609;28;20312;-77
2022/02/11 10:37:28;;;;;;;38.67;21.77;;;;;;;;;;6308644;28;20486;-77
2022/02/11 10:40:32;;;;;;;48.13;26.35;;;;;;;;;;6308867;28;20040;-77
2022/02/11 10:43:36;;;;;;;40.60;25.60;;;;;;;;;;6307151;28;20036;-76
2022/02/11 10:46:41;;;;;;;44.45;24.90;;;;;;;;;;6311204;28;20062;-78
2022/02/11 10:49:47;;;;;;;40.20;25.05;;;;;;;;;;6313943;28;20043;-76
2022/02/11 10:52:53;;;;;;;42.80;23.75;;;;;;;;;;6293776;28;20055;-76
2022/02/11 10:55:57;;;;;;;40.40;22.45;;;;;;;;;;6310455;28;20083;-76
2022/02/11 10:59:01;;;;;;;41.90;23.70;;;;;;;;;;6309592;28;20066;-77
2022/02/11 11:02:05;;;;;;;41.50;24.00;;;;;;;;;;6292789;28;20122;-76
2022/02/11 11:05:09;;;;;;;46.80;26.15;;;;;;;;;;6307834;28;20465;-77
2022/02/11 11:08:16;;;;;;;47.97;25.48;;;;;;;;;;6310745;28;21034;-77
2022/02/11 11:11:21;;;;;;;41.42;25.35;;;;;;;;;;6310301;28;20044;-76
2022/02/11 11:14:27;;;;;;;36.53;23.83;;;;;;;;;;6307563;28;20043;-76
2022/02/11 11:17:31;;;;;;;37.95;23.58;;;;;;;;;;6308521;28;20803;-77
2022/02/11 11:20:35;;;;;;;43.00;22.98;;;;;;;;;;6312313;28;20039;-78
2022/02/11 11:23:45;;;;;;;44.28;25.80;;;;;;;;;;6310630;28;20040;-79
2022/02/11 11:26:55;;;;;;;46.97;23.63;;;;;;;;;;6306772;28;20058;-76
2022/02/11 11:30:19;;;;;;;45.50;26.40;;;;;;;;;;6302546;28;20070;-75
2022/02/11 11:33:26;;;;;;;49.55;27.02;;;;;;;;;;6306424;28;20445;-75
2022/02/11 11:36:34;;;;;;;41.55;24.30;;;;;;;;;;6307183;28;20044;-76
2022/02/11 11:39:45;;;;;;;36.22;20.13;;;;;;;;;;6307131;28;20378;-76
2022/02/11 11:42:49;;;;;;;33.55;18.77;;;;;;;;;;6288560;28;20047;-76
2022/02/11 11:45:54;;;;;;;;;;;;;;;;;;6308290;28;20090;-74
2022/02/11 11:48:59;;;;;;;36.42;21.27;;;;;;;;;;6304557;28;19920;-75
2022/02/11 11:52:03;;;;;;;32.08;17.92;;;;;;;;;;6312137;28;20051;-76
2022/02/11 11:55:21;;;;;;;25.77;16.17;;;;;;;;;;6313292;28;20411;-76
2022/02/11 11:58:45;;;;;;;25.77;14.85;;;;;;;;;;6304107;28;20763;-75
2022/02/11 12:01:52;;;;;;;26.45;13.75;;;;;;;;;;6305129;28;20032;-76
2022/02/11 12:04:56;;;;;;;25.48;14.00;;;;;;;;;;6308912;28;20048;-77
2022/02/11 12:08:01;;;;;;;25.30;12.93;;;;;;;;;;6309170;28;20048;-77
2022/02/11 12:11:05;;;;;;;36.63;19.52;;;;;;;;;;6305879;28;20131;-77
2022/02/11 12:14:11;;;;;;;28.35;15.02;;;;;;;;;;6302331;28;20047;-78
2022/02/11 12:17:15;;;;;;;;;;;;;;;;;;6310494;28;20040;-77
2022/02/11 12:20:18;;;;;;;30.95;17.25;;;;;;;;;;6310522;28;19927;-77
2022/02/11 12:30:10;;;;;;;12.07;5.07;;;;;;;;;;6308914;28;20700;-82
2022/02/11 12:33:14;;;;;;;10.85;4.78;;;;;;;;;;6305338;28;20131;-81
2022/02/11 12:36:19;;;;;;;;;;;;;;;;;;6306615;28;20043;-81
2022/02/11 12:39:27;;;;;;;9.40;5.10;;;;;;;;;;6307550;28;19919;-85
2022/02/11 12:42:31;;;;;;;12.57;5.50;;;;;;;;;;6307551;28;20708;-81
2022/02/11 12:45:38;;;;;;;13.05;5.45;;;;;;;;;;6305028;28;20072;-78
2022/02/11 12:48:46;;;;;;;13.73;6.60;;;;;;;;;;6305438;28;20513;-83
2022/02/11 12:51:50;;;;;;;12.07;5.60;;;;;;;;;;6305345;28;20125;-82
2022/02/11 12:55:07;;;;;;;8.30;4.57;;;;;;;;;;6304871;28;20040;-78
2022/02/11 12:58:13;;;;;;;9.23;5.10;;;;;;;;;;6302739;28;20052;-78
2022/02/11 13:01:31;;;;;;;11.15;5.68;;;;;;;;;;6306369;28;20066;-79
2022/02/11 13:04:35;;;;;;;12.13;6.28;;;;;;;;;;6289737;28;20058;-77
2022/02/11 13:07:41;;;;;;;12.10;6.97;;;;;;;;;;6288835;28;20606;-82
2022/02/11 13:10:46;;;;;;;12.00;7.05;;;;;;;;;;6303758;28;20052;-81
2022/02/11 13:14:00;;;;;;;13.35;7.55;;;;;;;;;;6304885;28;20627;-81
2022/02/11 13:17:11;;;;;;;17.13;9.25;;;;;;;;;;6288360;28;20475;-83
2022/02/11 13:20:15;;;;;;;19.63;10.57;;;;;;;;;;6284814;28;20044;-81
2022/02/11 13:23:20;;;;;;;18.38;10.40;;;;;;;;;;6305497;28;20121;-79
2022/02/11 13:26:26;;;;;;;15.55;9.90;;;;;;;;;;6307174;28;20040;-78
2022/02/11 13:29:29;;;;;;;18.40;9.85;;;;;;;;;;6304513;28;20486;-79
2022/02/11 13:32:34;;;;;;;17.42;10.00;;;;;;;;;;6304530;28;20044;-77
2022/02/11 13:35:41;;;;;;;16.15;9.63;;;;;;;;;;6304728;28;20078;-78
2022/02/11 13:38:48;;;;;;;15.52;9.10;;;;;;;;;;6305297;28;20132;-79
2022/02/11 13:41:51;;;;;;;16.10;8.95;;;;;;;;;;6301972;28;20083;-78
2022/02/11 13:45:01;;;;;;;14.80;8.35;;;;;;;;;;6305621;28;20126;-77
2022/02/11 13:48:09;;;;;;;14.73;8.43;;;;;;;;;;6303994;28;20387;-77
2022/02/11 13:51:13;;;;;;;16.55;8.07;;;;;;;;;;6303819;28;20048;-77
2022/02/11 13:54:17;;;;;;;12.35;7.38;;;;;;;;;;6301741;28;20098;-77
2022/02/11 13:57:23;;;;;;;9.73;6.50;;;;;;;;;;6303841;28;20474;-76
2022/02/11 14:00:32;;;;;;;10.82;6.45;;;;;;;;;;6303467;28;20051;-76
2022/02/11 14:03:37;;;;;;;14.32;6.88;;;;;;;;;;6304191;28;20050;-77
2022/02/11 14:06:47;;;;;;;11.32;6.43;;;;;;;;;;6302661;28;20508;-75
2022/02/11 14:09:50;;;;;;;7.97;5.22;;;;;;;;;;6304349;28;20502;-76
2022/02/11 14:13:04;;;;;;;7.93;4.82;;;;;;;;;;6302396;28;20044;-75
2022/02/11 14:16:08;;;;;;;9.20;5.25;;;;;;;;;;6301873;28;20540;-77
2022/02/11 14:19:16;;;;;;;8.75;5.00;;;;;;;;;;6305233;28;20565;-75
2022/02/11 14:22:19;;;;;;;9.13;5.22;;;;;;;;;;6305299;28;20044;-76
2022/02/11 14:25:25;;;;;;;7.25;4.63;;;;;;;;;;6300073;28;20070;-77
2022/02/11 14:28:29;;;;;;;9.18;5.18;;;;;;;;;;6304830;28;20402;-76
2022/02/11 14:31:33;;;;;;;7.43;4.38;;;;;;;;;;6302573;28;20044;-77
2022/02/11 14:34:38;;;;;;;6.38;4.10;;;;;;;;;;6302275;28;20040;-76
2022/02/11 14:37:43;;;;;;;9.40;4.75;;;;;;;;;;6302911;28;20483;-77
2022/02/11 14:44:09;;;;;;;10.45;5.00;;;;;;;;;;6303516;28;20048;-77
2022/02/11 14:47:14;;;;;;;9.20;5.00;;;;;;;;;;6299758;28;20059;-76
2022/02/11 14:50:19;;;;;;;9.98;4.70;;;;;;;;;;6302023;28;20187;-79
2022/02/11 14:53:23;;;;;;;10.93;4.97;;;;;;;;;;6304189;28;20047;-77
2022/02/11 14:56:26;;;;;;;8.50;4.82;;;;;;;;;;6308133;28;20044;-75
2022/02/11 14:59:29;;;;;;;9.02;5.00;;;;;;;;;;6305225;28;20115;-75
2022/02/11 15:02:33;;;;;;;8.50;5.45;;;;;;;;;;6307878;28;20051;-76
2022/02/11 15:05:38;;;;;;;10.25;5.65;;;;;;;;;;6308186;28;20044;-76
2022/02/11 15:08:43;;;;;;;10.48;6.05;;;;;;;;;;6305980;28;20044;-77
2022/02/11 15:11:48;;;;;;;12.18;6.97;;;;;;;;;;6307553;28;20044;-75
2022/02/11 15:14:54;;;;;;;11.23;6.32;;;;;;;;;;6290410;28;20136;-75
2022/02/11 15:17:57;;;;;;;8.32;5.10;;;;;;;;;;6305363;28;20395;-76
2022/02/11 15:21:06;;;;;;;8.23;5.13;;;;;;;;;;6306524;28;20097;-75
2022/02/11 15:24:11;;;;;;;7.50;5.13;;;;;;;;;;6307670;28;20036;-74
2022/02/11 15:27:17;;;;;;;;;;;;;;;;;;6308306;28;20048;-75
2022/02/11 15:30:20;;;;;;;5.60;3.80;;;;;;;;;;6303814;28;19919;-79
2022/02/11 15:33:24;;;;;;;7.97;3.80;;;;;;;;;;6308619;28;20079;-75
2022/02/11 15:36:28;;;;;;;3.15;2.50;;;;;;;;;;6307386;28;20101;-75
2022/02/11 15:39:32;;;;;;;3.78;2.65;;;;;;;;;;6305702;28;20051;-77
2022/02/11 15:42:36;;;;;;;3.63;1.80;;;;;;;;;;6307843;28;20044;-79
2022/02/11 15:45:39;;;;;;;2.95;1.80;;;;;;;;;;6305564;28;20521;-79
2022/02/11 15:48:42;;;;;;;2.72;1.73;;;;;;;;;;6288755;28;20057;-77
2022/02/11 15:51:47;;;;;;;2.25;1.73;;;;;;;;;;6304468;28;20572;-79
2022/02/11 15:54:51;;;;;;;2.88;1.63;;;;;;;;;;6305571;28;20047;-77
2022/02/11 15:57:55;;;;;;;2.78;1.88;;;;;;;;;;6306950;28;20055;-77
2022/02/11 16:01:04;;;;;;;2.58;2.10;;;;;;;;;;6302765;28;20097;-78
2022/02/11 16:04:08;;;;;;;2.65;1.75;;;;;;;;;;6304317;28;20051;-77
2022/02/11 16:07:13;;;;;;;3.20;2.17;;;;;;;;;;6304900;28;20046;-76
2022/02/11 16:10:16;;;;;;;2.17;1.95;;;;;;;;;;6304162;28;20048;-77
2022/02/11 16:13:19;;;;;;;3.28;1.95;;;;;;;;;;6304642;28;20298;-76
2022/02/11 16:16:23;;;;;;;2.55;1.95;;;;;;;;;;6307938;28;20320;-76
2022/02/11 16:19:26;;;;;;;3.22;2.20;;;;;;;;;;6305991;28;20044;-76
2022/02/11 16:22:31;;;;;;;2.53;1.70;;;;;;;;;;6305404;28;20089;-76
2022/02/11 16:25:35;;;;;;;2.53;1.70;;;;;;;;;;6306711;28;20482;-76
2022/02/11 16:28:40;;;;;;;4.68;2.10;;;;;;;;;;6306106;28;20055;-75
2022/02/11 16:31:44;;;;;;;2.45;1.83;;;;;;;;;;6303268;28;20135;-75
2022/02/11 16:34:47;;;;;;;2.88;1.55;;;;;;;;;;6304027;28;20047;-75
2022/02/11 16:37:52;;;;;;;3.22;1.40;;;;;;;;;;6304538;28;20047;-75
2022/02/11 16:40:56;;;;;;;3.97;1.38;;;;;;;;;;6304011;28;20048;-75
2022/02/11 16:43:59;;;;;;;3.40;1.50;;;;;;;;;;6304731;28;20411;-75
2022/02/11 16:47:03;;;;;;;2.13;1.83;;;;;;;;;;6314988;28;20059;-76
2022/02/11 16:50:07;;;;;;;1.80;1.30;;;;;;;;;;6300238;28;20051;-77
2022/02/11 16:53:12;;;;;;;1.63;1.10;;;;;;;;;;6315167;28;20036;-75
2022/02/11 16:56:15;;;;;;;1.30;1.02;;;;;;;;;;6317079;28;20063;-76
2022/02/11 16:59:19;;;;;;;1.38;1.25;;;;;;;;;;6317016;28;20048;-77
2022/02/11 17:02:22;;;;;;;2.88;1.30;;;;;;;;;;6316888;28;20055;-76
2022/02/11 17:05:27;;;;;;;2.00;1.38;;;;;;;;;;6299881;28;20153;-76
2022/02/11 17:08:33;;;;;;;1.65;1.23;;;;;;;;;;6318810;28;20098;-76
2022/02/11 17:11:36;;;;;;;2.05;1.38;;;;;;;;;;6316794;28;20043;-77
2022/02/11 17:14:39;;;;;;;1.42;1.33;;;;;;;;;;6316307;28;20047;-77
2022/02/11 17:17:42;;;;;;;3.88;1.92;;;;;;;;;;6316689;28;20097;-77
2022/02/11 17:20:45;;;;;;;1.75;1.30;;;;;;;;;;6317347;28;20122;-76
2022/02/11 17:23:50;;;;;;;2.42;1.50;;;;;;;;;;6297388;28;20046;-76
2022/02/11 17:26:55;;;;;;;4.05;1.50;;;;;;;;;;6316505;28;20051;-77
2022/02/11 17:29:59;;;;;;;3.80;1.77;;;;;;;;;;6316260;28;20048;-76
2022/02/11 17:33:04;;;;;;;3.88;1.63;;;;;;;;;;6314273;28;20131;-75
2022/02/11 17:36:10;;;;;;;2.40;1.65;;;;;;;;;;6313712;28;20048;-75
2022/02/11 17:39:15;;;;;;;1.40;1.30;;;;;;;;;;6314014;28;20040;-74
2022/02/11 17:42:20;;;;;;;2.63;1.73;;;;;;;;;;6319869;28;20048;-74
2022/02/11 17:45:24;;;;;;;2.80;1.60;;;;;;;;;;6319654;28;20183;-74
2022/02/11 17:48:29;;;;;;;2.85;1.90;;;;;;;;;;6311670;28;20511;-75
2022/02/11 17:51:34;;;;;;;2.00;1.30;;;;;;;;;;6314175;28;20044;-74
2022/02/11 17:54:39;;;;;;;2.08;1.60;;;;;;;;;;6312058;28;20054;-74
2022/02/11 17:57:42;;;;;;;3.30;1.83;;;;;;;;;;6310493;28;20058;-74
2022/02/11 18:00:45;;;;;;;2.95;1.80;;;;;;;;;;6309175;28;20052;-76
2022/02/11 18:03:49;;;;;;;3.50;1.67;;;;;;;;;;6311658;28;20457;-75
2022/02/11 18:06:52;;;;;;;2.10;1.40;;;;;;;;;;6310638;28;20040;-75
2022/02/11 18:09:59;;;;;;;1.80;1.40;;;;;;;;;;6294262;28;20040;-77
2022/02/11 18:13:03;;;;;;;7.47;1.75;;;;;;;;;;6315423;28;20051;-76
2022/02/11 18:16:08;;;;;;;1.90;1.50;;;;;;;;;;6314256;28;20140;-77
2022/02/11 18:19:11;;;;;;;1.90;1.50;;;;;;;;;;6317103;28;20474;-77
2022/02/11 18:22:14;;;;;;;2.33;1.77;;;;;;;;;;6315950;28;20052;-77
2022/02/11 18:25:19;;;;;;;2.05;1.20;;;;;;;;;;6316380;28;20430;-76
2022/02/11 18:28:23;;;;;;;1.85;1.45;;;;;;;;;;6317105;28;20055;-75
2022/02/11 18:31:30;;;;;;;1.75;1.45;;;;;;;;;;6321981;28;20058;-75
2022/02/11 18:34:33;;;;;;;1.75;1.15;;;;;;;;;;6321756;28;20068;-75
2022/02/11 18:37:37;;;;;;;2.50;1.20;;;;;;;;;;6319672;28;20051;-75
2022/02/11 18:40:42;;;;;;;1.77;1.50;;;;;;;;;;6321803;28;20047;-75
2022/02/11 18:43:45;;;;;;;3.42;1.25;;;;;;;;;;6320541;28;20422;-75
2022/02/11 18:46:48;;;;;;;2.03;1.35;;;;;;;;;;6318871;28;20052;-75
2022/02/11 18:49:52;;;;;;;2.58;1.48;;;;;;;;;;6319499;28;20290;-75
2022/02/11 18:52:55;;;;;;;5.32;1.55;;;;;;;;;;6320144;28;20490;-74
2022/02/11 18:56:00;;;;;;;4.10;1.75;;;;;;;;;;6320088;28;20040;-75
2022/02/11 19:02:23;;;;;;;2.67;1.50;;;;;;;;;;6319828;28;20071;-75
2022/02/11 19:05:29;;;;;;;3.63;1.23;;;;;;;;;;6320112;28;20063;-75
2022/02/11 19:08:33;;;;;;;5.93;2.13;;;;;;;;;;6319924;28;20044;-75
2022/02/11 19:11:41;;;;;;;3.70;1.38;;;;;;;;;;6320097;28;20044;-74
2022/02/11 19:14:45;;;;;;;1.58;1.42;;;;;;;;;;6321252;28;20470;-76
2022/02/11 19:17:51;;;;;;;3.33;1.42;;;;;;;;;;6319653;28;20059;-75
2022/02/11 19:20:55;;;;;;;3.42;1.63;;;;;;;;;;6318795;28;20048;-74
2022/02/11 19:23:58;;;;;;;1.33;1.10;;;;;;;;;;6321220;28;20052;-76
2022/02/11 19:27:04;;;;;;;2.25;1.42;;;;;;;;;;6319632;28;20036;-73
2022/02/11 19:30:08;;;;;;;2.58;1.25;;;;;;;;;;6301284;28;20045;-74
2022/02/11 19:33:15;;;;;;;1.63;1.25;;;;;;;;;;6319961;28;20048;-74
2022/02/11 19:36:18;;;;;;;4.78;1.63;;;;;;;;;;6319601;28;20044;-74
2022/02/11 19:39:23;;;;;;;3.47;1.55;;;;;;;;;;6318565;28;20082;-74
2022/02/11 19:42:31;;;;;;;2.08;1.70;;;;;;;;;;6318517;28;20048;-73
2022/02/11 19:45:36;;;;;;;3.58;1.80;;;;;;;;;;6319048;28;20407;-74
2022/02/11 19:48:42;;;;;;;2.60;1.35;;;;;;;;;;6319057;28;20059;-74
2022/02/11 19:51:48;;;;;;;2.35;1.30;;;;;;;;;;6317015;28;20418;-74
2022/02/11 19:54:52;;;;;;;4.80;1.73;;;;;;;;;;6319709;28;20121;-74
2022/02/11 19:57:56;;;;;;;2.25;1.42;;;;;;;;;;6320175;28;20044;-73
2022/02/11 20:01:00;;;;;;;3.75;2.00;;;;;;;;;;6319768;28;20040;-74
2022/02/11 20:04:06;;;;;;;4.00;1.90;;;;;;;;;;6316975;28;20055;-74
2022/02/11 20:07:11;;;;;;;2.55;1.40;;;;;;;;;;6318648;28;20545;-74
2022/02/11 20:10:16;;;;;;;1.83;1.35;;;;;;;;;;6318625;28;20043;-74
2022/02/11 20:13:21;;;;;;;4.32;1.67;;;;;;;;;;6315712;28;20044;-74
2022/02/11 20:16:25;;;;;;;4.18;1.83;;;;;;;;;;6319671;28;20043;-73
2022/02/11 20:19:30;;;;;;;2.70;1.73;;;;;;;;;;6318372;28;20079;-74
2022/02/11 20:22:36;;;;;;;4.00;1.80;;;;;;;;;;6318539;28;20051;-74
2022/02/11 20:25:41;;;;;;;2.35;1.77;;;;;;;;;;6316799;28;20040;-74
2022/02/11 20:28:47;;;;;;;3.25;2.10;;;;;;;;;;6318174;28;20048;-74
2022/02/11 20:31:52;;;;;;;2.22;1.90;;;;;;;;;;6319324;28;20072;-75
2022/02/11 20:35:00;;;;;;;2.00;1.60;;;;;;;;;;6315665;28;20105;-75
2022/02/11 20:38:08;;;;;;;2.75;1.92;;;;;;;;;;6317794;28;20594;-75
2022/02/11 20:41:14;;;;;;;2.67;1.85;;;;;;;;;;6317887;28;20044;-75
2022/02/11 20:44:18;;;;;;;4.00;2.25;;;;;;;;;;6316713;28;20482;-74
2022/02/11 20:47:23;;;;;;;3.28;1.90;;;;;;;;;;6316146;28;20489;-74
2022/02/11 20:50:36;;;;;;;3.10;1.63;;;;;;;;;;6317032;28;20057;-75
2022/02/11 20:53:39;;;;;;;3.30;1.80;;;;;;;;;;6318689;28;20284;-76
2022/02/11 20:56:42;;;;;;;1.67;1.58;;;;;;;;;;6316590;28;20054;-74
2022/02/11 20:59:48;;;;;;;2.22;1.67;;;;;;;;;;6318869;28;20052;-74
2022/02/11 21:02:52;;;;;;;2.47;1.70;;;;;;;;;;6317316;28;20144;-75
2022/02/11 21:07:07;;;;;;;3.28;2.00;;;;;;;;;;6316204;28;20048;-75
2022/02/11 21:09:23;;;;;;;5.03;1.90;;;;;;;;;;6316324;28;20482;-75
2022/02/11 21:12:27;;;;;;;2.47;1.80;;;;;;;;;;6318196;28;20040;-74
2022/02/11 21:15:31;;;;;;;2.45;1.80;;;;;;;;;;6316796;28;20052;-74
2022/02/11 21:18:35;;;;;;;3.43;2.07;;;;;;;;;;6315024;28;20055;-74
2022/02/11 21:21:39;;;;;;;3.97;1.92;;;;;;;;;;6316737;28;20654;-74
2022/02/11 21:24:43;;;;;;;3.83;2.13;;;;;;;;;;6316839;28;20437;-74
2022/02/11 21:27:52;;;;;;;6.38;2.30;;;;;;;;;;6316197;28;20047;-73
2022/02/11 21:30:57;;;;;;;4.05;2.20;;;;;;;;;;6298555;28;20047;-74
2022/02/11 21:34:04;;;;;;;2.28;2.05;;;;;;;;;;6317810;28;20486;-73
2022/02/11 21:37:07;;;;;;;4.22;2.60;;;;;;;;;;6317970;28;20425;-75
2022/02/11 21:40:11;;;;;;;4.15;1.90;;;;;;;;;;6314326;28;20193;-74
2022/02/11 21:43:14;;;;;;;3.58;2.30;;;;;;;;;;6317247;28;20497;-74
2022/02/11 21:46:19;;;;;;;5.47;2.30;;;;;;;;;;6316125;28;20506;-74